createdAt,value
2023-01-11T00:01:21.382Z,9.72
2023-01-11T00:03:49.583Z,9.76
2023-01-11T00:06:17.853Z,9.74
2023-01-11T00:08:47.261Z,9.80
2023-01-11T00:11:17.589Z,9.83
2023-01-11T00:13:47.629Z,9.82
2023-01-11T00:16:16.251Z,9.85
2023-01-11T00:18:44.721Z,9.85
2023-01-11T00:21:13.034Z,9.87
2023-01-11T00:23:41.632Z,9.91
2023-01-11T00:26:14.258Z,9.96
2023-01-11T00:28:42.749Z,9.97
2023-01-11T00:31:12.555Z,10.06
2023-01-11T00:33:40.973Z,10.08
2023-01-11T00:36:11.081Z,10.16
2023-01-11T00:38:51.216Z,10.18
2023-01-11T00:41:37.920Z,10.20
2023-01-11T00:44:24.554Z,10.22
2023-01-11T00:47:11.642Z,10.21
2023-01-11T00:49:40.455Z,10.18
2023-01-11T00:52:10.068Z,10.21
2023-01-11T00:54:39.446Z,10.26
2023-01-11T00:57:08.937Z,10.30
2023-01-11T00:59:39.243Z,10.31
2023-01-11T01:02:09.917Z,10.32
2023-01-11T01:04:39.361Z,10.38
2023-01-11T01:07:09.055Z,10.36
2023-01-11T01:09:37.327Z,10.36
2023-01-11T01:12:07.158Z,10.30
2023-01-11T01:14:35.292Z,10.39
2023-01-11T01:17:07.180Z,10.40
2023-01-11T01:19:40.130Z,10.41
2023-01-11T01:22:09.171Z,10.44
2023-01-11T01:24:37.631Z,10.47
2023-01-11T01:27:05.880Z,10.48
2023-01-11T01:29:34.341Z,10.46
2023-01-11T01:32:06.328Z,10.50
2023-01-11T01:34:37.517Z,10.49
2023-01-11T01:37:05.980Z,10.60
2023-01-11T01:39:35.395Z,10.63
2023-01-11T01:42:03.960Z,10.67
2023-01-11T01:45:00.629Z,10.69
2023-01-11T01:47:39.894Z,10.73
2023-01-11T01:50:18.895Z,10.74
2023-01-11T01:52:53.403Z,10.77
2023-01-11T01:55:29.647Z,10.85
2023-01-11T01:58:01.160Z,10.87
2023-01-11T02:00:30.117Z,10.89
2023-01-11T02:03:02.085Z,10.96
2023-01-11T02:05:32.322Z,10.97
2023-01-11T02:08:01.775Z,10.98
2023-01-11T02:10:30.482Z,11.02
2023-01-11T02:13:05.009Z,11.04
2023-01-11T02:15:33.924Z,10.99
2023-01-11T02:18:02.426Z,11.10
2023-01-11T02:20:47.484Z,11.16
2023-01-11T02:23:54.000Z,11.16
2023-01-11T02:27:01.747Z,11.13
2023-01-11T02:29:44.398Z,10.93
2023-01-11T02:32:27.107Z,10.81
2023-01-11T02:35:04.944Z,10.70
2023-01-11T02:37:44.167Z,10.70
2023-01-11T02:40:23.299Z,10.65
2023-01-11T02:43:13.065Z,10.58
2023-01-11T02:45:49.609Z,10.55
2023-01-11T02:48:27.739Z,10.49
2023-01-11T02:51:05.241Z,10.44
2023-01-11T02:53:39.594Z,10.52
2023-01-11T02:56:12.220Z,10.47
2023-01-11T02:58:45.732Z,10.50
2023-01-11T03:01:16.556Z,10.52
2023-01-11T03:03:45.068Z,10.55
2023-01-11T03:06:18.547Z,10.59
2023-01-11T03:09:11.319Z,10.75
2023-01-11T03:12:13.483Z,10.81
2023-01-11T03:14:57.944Z,10.90
2023-01-11T03:17:46.504Z,11.02
2023-01-11T03:20:26.583Z,11.10
2023-01-11T03:23:11.486Z,11.15
2023-01-11T03:25:51.077Z,11.09
2023-01-11T03:28:27.273Z,11.09
2023-01-11T03:31:03.228Z,10.87
2023-01-11T03:33:39.616Z,10.63
2023-01-11T03:36:17.680Z,10.59
2023-01-11T03:38:52.866Z,10.53
2023-01-11T03:41:26.253Z,10.51
2023-01-11T03:43:58.168Z,10.56
2023-01-11T03:46:31.642Z,10.53
2023-01-11T03:49:06.614Z,10.50
2023-01-11T03:51:42.720Z,10.50
2023-01-11T03:54:18.467Z,10.49
2023-01-11T03:56:55.129Z,10.48
2023-01-11T03:59:23.954Z,10.47
2023-01-11T04:01:55.291Z,10.49
2023-01-11T04:04:25.620Z,10.47
2023-01-11T04:06:54.373Z,10.43
2023-01-11T04:09:23.300Z,10.47
2023-01-11T04:11:51.755Z,10.41
2023-01-11T04:14:20.286Z,10.46
2023-01-11T04:16:48.919Z,10.48
2023-01-11T04:19:17.189Z,10.52
2023-01-11T04:21:46.829Z,10.56
2023-01-11T04:24:15.426Z,10.51
2023-01-11T04:26:43.737Z,10.52
2023-01-11T04:29:12.628Z,10.47
2023-01-11T04:31:40.944Z,10.52
2023-01-11T04:34:09.306Z,10.49
2023-01-11T04:36:37.989Z,10.49
2023-01-11T04:39:10.612Z,10.50
2023-01-11T04:41:56.680Z,10.55
2023-01-11T04:44:25.271Z,10.54
2023-01-11T04:46:53.895Z,10.57
2023-01-11T04:49:22.211Z,10.58
2023-01-11T04:51:50.518Z,10.55
2023-01-11T04:54:20.443Z,10.60
2023-01-11T04:56:48.947Z,10.57
2023-01-11T04:59:17.283Z,10.59
2023-01-11T05:01:45.750Z,10.53
2023-01-11T05:04:14.410Z,10.54
2023-01-11T05:06:42.750Z,10.47
2023-01-11T05:09:14.803Z,10.49
2023-01-11T05:11:45.744Z,10.52
2023-01-11T05:14:14.077Z,10.49
2023-01-11T05:16:42.708Z,10.47
2023-01-11T05:19:12.897Z,10.47
2023-01-11T05:21:43.317Z,10.45
2023-01-11T05:24:16.016Z,10.54
2023-01-11T05:26:46.347Z,10.48
2023-01-11T05:29:17.067Z,10.48
2023-01-11T05:31:45.467Z,10.45
2023-01-11T05:34:15.072Z,10.46
2023-01-11T05:36:44.156Z,10.44
2023-01-11T05:39:13.987Z,10.47
2023-01-11T05:41:42.719Z,10.49
2023-01-11T05:44:32.028Z,10.40
2023-01-11T05:47:00.828Z,10.47
2023-01-11T05:49:29.188Z,10.46
2023-01-11T05:51:57.736Z,10.49
2023-01-11T05:54:26.368Z,10.45
2023-01-11T05:56:57.408Z,10.50
2023-01-11T05:59:27.508Z,10.54
2023-01-11T06:01:55.951Z,10.56
2023-01-11T06:04:24.288Z,10.50
2023-01-11T06:06:52.619Z,10.50
2023-01-11T06:09:21.953Z,10.50
2023-01-11T06:11:50.600Z,10.48
2023-01-11T06:14:19.225Z,10.51
2023-01-11T06:16:49.000Z,10.49
2023-01-11T06:19:17.860Z,10.47
2023-01-11T06:21:46.126Z,10.49
2023-01-11T06:24:14.587Z,10.49
2023-01-11T06:26:43.148Z,10.53
2023-01-11T06:29:11.555Z,10.53
2023-01-11T06:31:39.816Z,10.55
2023-01-11T06:34:10.254Z,10.53
2023-01-11T06:36:39.247Z,10.58
2023-01-11T06:39:07.892Z,10.58
2023-01-11T06:41:36.216Z,10.58
2023-01-11T06:44:04.716Z,10.57
2023-01-11T06:46:33.671Z,10.49
2023-01-11T06:49:03.533Z,10.58
2023-01-11T06:51:33.374Z,10.55
2023-01-11T06:54:01.693Z,10.64
2023-01-11T06:56:30.131Z,10.49
2023-01-11T06:58:58.522Z,10.45
2023-01-11T07:01:27.513Z,10.54
2023-01-11T07:03:55.830Z,10.54
2023-01-11T07:06:24.777Z,10.56
2023-01-11T07:08:54.484Z,10.47
2023-01-11T07:11:22.840Z,10.42
2023-01-11T07:13:51.305Z,10.39
2023-01-11T07:16:19.674Z,10.45
2023-01-11T07:18:48.281Z,10.43
2023-01-11T07:21:17.009Z,10.33
2023-01-11T07:23:45.958Z,10.43
2023-01-11T07:26:17.214Z,10.43
2023-01-11T07:28:46.044Z,10.32
2023-01-11T07:31:14.831Z,10.32
2023-01-11T07:33:43.474Z,10.31
2023-01-11T07:36:11.810Z,10.30
2023-01-11T07:38:40.369Z,10.24
2023-01-11T07:41:22.521Z,10.23
2023-01-11T07:43:52.545Z,10.29
2023-01-11T07:46:21.089Z,10.28
2023-01-11T07:48:49.639Z,10.23
2023-01-11T07:51:20.512Z,10.06
2023-01-11T07:53:49.011Z,10.13
2023-01-11T07:56:18.122Z,10.01
2023-01-11T07:58:46.440Z,10.10
2023-01-11T08:01:16.164Z,9.88
2023-01-11T08:03:44.804Z,9.97
2023-01-11T08:06:14.466Z,10.00
2023-01-11T08:08:43.358Z,10.00
2023-01-11T08:11:32.789Z,10.01
2023-01-11T08:14:18.759Z,9.98
2023-01-11T08:16:48.652Z,9.86
2023-01-11T08:19:17.234Z,9.92
2023-01-11T08:21:45.579Z,9.85
2023-01-11T08:24:13.803Z,9.91
2023-01-11T08:26:42.259Z,9.91
2023-01-11T08:29:11.652Z,9.88
2023-01-11T08:31:39.971Z,9.93
2023-01-11T08:34:09.885Z,9.98
2023-01-11T08:36:38.352Z,9.99
2023-01-11T08:39:06.867Z,10.04
2023-01-11T08:41:35.371Z,10.04
2023-01-11T08:44:04.124Z,10.03
2023-01-11T08:46:34.307Z,10.03
2023-01-11T08:49:02.944Z,9.98
2023-01-11T08:51:33.201Z,9.88
2023-01-11T08:54:01.746Z,9.92
2023-01-11T08:56:30.449Z,9.79
2023-01-11T08:58:58.807Z,9.83
2023-01-11T09:01:27.171Z,9.82
2023-01-11T09:03:56.019Z,9.86
2023-01-11T09:06:24.356Z,9.83
2023-01-11T09:08:54.460Z,9.78
2023-01-11T09:11:40.504Z,9.74
2023-01-11T09:14:08.960Z,9.73
2023-01-11T09:16:37.255Z,9.65
2023-01-11T09:19:05.885Z,9.64
2023-01-11T09:21:34.313Z,9.62
2023-01-11T09:24:05.040Z,9.66
2023-01-11T09:26:33.658Z,9.48
2023-01-11T09:29:02.012Z,9.53
2023-01-11T09:31:30.605Z,9.49
2023-01-11T09:33:59.159Z,9.43
2023-01-11T09:36:28.037Z,9.43
2023-01-11T09:38:58.038Z,9.43
2023-01-11T09:41:43.083Z,9.36
2023-01-11T09:44:19.078Z,9.29
2023-01-11T09:46:54.450Z,9.31
2023-01-11T09:49:28.751Z,9.38
2023-01-11T09:52:09.559Z,9.36
2023-01-11T09:54:38.616Z,9.40
2023-01-11T09:57:26.651Z,9.39
2023-01-11T10:00:05.214Z,9.28
2023-01-11T10:02:50.122Z,9.26
2023-01-11T10:05:44.113Z,9.24
2023-01-11T10:18:22.885Z,9.24
2023-01-11T10:18:32.762Z,9.29
2023-01-11T10:20:38.371Z,9.34
2023-01-11T10:23:16.629Z,9.25
2023-01-11T10:25:51.811Z,9.27
2023-01-11T10:28:29.582Z,9.31
2023-01-11T10:31:29.677Z,9.30
2023-01-11T10:34:33.716Z,9.22
2023-01-11T10:37:26.837Z,9.06
2023-01-11T10:40:22.746Z,9.01
2023-01-11T10:43:00.265Z,8.89
2023-01-11T10:45:44.396Z,8.86
2023-01-11T10:48:23.633Z,8.85
2023-01-11T10:51:04.981Z,8.92
2023-01-11T10:53:40.660Z,8.84
2023-01-11T10:56:25.443Z,8.78
2023-01-11T10:59:16.481Z,8.75
2023-01-11T11:01:59.967Z,8.71
2023-01-11T11:07:34.439Z,8.67
2023-01-11T11:10:13.566Z,8.68
2023-01-11T11:12:53.505Z,8.74
2023-01-11T11:15:28.332Z,8.79
2023-01-11T11:17:56.906Z,9.00
2023-01-11T11:20:30.285Z,8.91
2023-01-11T11:23:00.332Z,8.99
2023-01-11T11:25:32.541Z,9.09
2023-01-11T11:28:05.151Z,8.93
2023-01-11T11:30:39.017Z,9.11
2023-01-11T11:33:20.114Z,9.24
2023-01-11T11:35:58.432Z,9.23
2023-01-11T11:38:31.336Z,9.26
2023-01-11T11:41:07.558Z,9.35
2023-01-11T11:43:37.857Z,9.39
2023-01-11T11:46:22.843Z,9.25
2023-01-11T11:49:13.921Z,9.50
2023-01-11T11:51:44.073Z,9.46
2023-01-11T11:54:23.706Z,9.54
2023-01-11T11:56:53.193Z,9.65
2023-01-11T11:59:24.434Z,9.58
2023-01-11T12:02:00.776Z,9.46
2023-01-11T12:04:47.139Z,9.54
2023-01-11T12:07:20.376Z,9.45
2023-01-11T12:09:55.946Z,9.48
2023-01-11T12:12:28.607Z,9.52
2023-01-11T12:15:19.974Z,9.60
2023-01-11T12:17:49.313Z,9.65
2023-01-11T12:20:44.654Z,9.76
2023-01-11T12:23:19.378Z,9.80
2023-01-11T12:26:17.322Z,9.70
2023-01-11T12:29:19.412Z,9.56
2023-01-11T12:32:16.212Z,9.39
2023-01-11T12:35:20.873Z,9.47
2023-01-11T12:38:10.616Z,9.45
2023-01-11T12:40:52.695Z,9.49
2023-01-11T12:43:38.944Z,9.57
2023-01-11T12:46:21.488Z,9.58
2023-01-11T12:49:30.535Z,9.47
2023-01-11T12:52:29.042Z,9.43
2023-01-11T12:55:20.496Z,9.40
2023-01-11T12:58:01.602Z,9.29
2023-01-11T13:01:07.918Z,9.30
2023-01-11T13:04:22.857Z,9.61
2023-01-11T13:07:01.629Z,9.71
2023-01-11T13:09:45.832Z,9.68
2023-01-11T13:12:20.412Z,9.48
2023-01-11T13:15:04.465Z,9.75
2023-01-11T13:17:43.209Z,9.90
2023-01-11T13:20:40.401Z,9.66
2023-01-11T13:23:25.408Z,9.59
2023-01-11T13:25:55.389Z,9.60
2023-01-11T13:28:31.209Z,9.69
2023-01-11T13:31:03.474Z,9.61
2023-01-11T13:33:35.824Z,9.58
2023-01-11T13:36:22.869Z,9.53
2023-01-11T13:39:00.273Z,9.48
2023-01-11T13:41:35.029Z,9.55
2023-01-11T13:44:11.548Z,9.63
2023-01-11T13:46:58.809Z,9.50
2023-01-11T13:49:42.443Z,9.58
2023-01-11T13:52:16.272Z,9.66
2023-01-11T13:54:57.956Z,9.57
2023-01-11T13:57:37.127Z,9.72
2023-01-11T14:00:19.074Z,10.01
2023-01-11T14:02:53.076Z,9.81
2023-01-11T14:05:24.486Z,9.92
2023-01-11T14:08:22.529Z,9.91
2023-01-11T14:11:05.991Z,9.85
2023-01-11T14:14:11.404Z,10.00
2023-01-11T14:16:58.981Z,10.08
2023-01-11T14:19:35.210Z,10.04
2023-01-11T14:22:22.351Z,10.05
2023-01-11T14:25:01.305Z,9.77
2023-01-11T14:28:01.442Z,9.72
2023-01-11T14:30:50.752Z,9.85
2023-01-11T14:34:17.498Z,9.91
2023-01-11T14:37:18.498Z,9.95
2023-01-11T14:40:12.132Z,9.88
2023-01-11T14:43:24.403Z,9.90
2023-01-11T14:46:29.977Z,9.94
2023-01-11T14:49:15.846Z,9.70
2023-01-11T14:51:58.037Z,9.82
2023-01-11T14:54:32.811Z,9.85
2023-01-11T14:57:02.966Z,9.70
2023-01-11T14:59:40.163Z,9.66
2023-01-11T15:02:26.369Z,9.59
2023-01-11T15:05:29.438Z,9.55
2023-01-11T15:08:22.638Z,9.51
2023-01-11T15:10:58.699Z,9.57
2023-01-11T15:13:33.009Z,9.46
2023-01-11T15:16:36.478Z,9.43
2023-01-11T15:19:09.222Z,9.36
2023-01-11T15:21:41.949Z,9.24
2023-01-11T15:24:25.360Z,9.31
2023-01-11T15:26:56.684Z,9.22
2023-01-11T15:29:29.289Z,9.21
2023-01-11T15:32:20.899Z,9.18
2023-01-11T15:34:50.412Z,9.11
2023-01-11T15:37:43.108Z,9.27
2023-01-11T15:40:19.295Z,9.28
2023-01-11T15:43:36.285Z,9.31
2023-01-11T15:46:52.612Z,9.26
2023-01-11T15:50:15.593Z,9.18
2023-01-11T15:53:27.246Z,9.19
2023-01-11T15:56:37.574Z,9.22
2023-01-11T16:00:05.327Z,9.21
2023-01-11T16:03:14.038Z,9.23
2023-01-11T16:05:50.748Z,9.41
2023-01-11T16:08:28.286Z,9.05
2023-01-11T16:11:18.613Z,9.00
2023-01-11T16:14:15.871Z,9.08
2023-01-11T16:16:46.198Z,8.97
2023-01-11T16:19:20.513Z,9.02
2023-01-11T16:21:52.145Z,9.07
2023-01-11T16:24:23.396Z,8.88
2023-01-11T16:26:55.607Z,8.85
2023-01-11T16:29:27.737Z,8.94
2023-01-11T16:32:00.784Z,8.78
2023-01-11T16:34:30.860Z,8.81
2023-01-11T16:36:59.336Z,8.69
2023-01-11T16:39:31.735Z,8.69
2023-01-11T16:42:05.655Z,8.61
2023-01-11T16:44:42.711Z,8.55
2023-01-11T16:47:15.781Z,8.50
2023-01-11T16:49:58.708Z,8.43
2023-01-11T16:52:45.264Z,8.48
2023-01-11T16:55:22.153Z,8.39
2023-01-11T16:57:55.732Z,8.22
2023-01-11T17:00:32.880Z,8.15
2023-01-11T17:03:25.151Z,8.15
2023-01-11T17:06:16.829Z,8.17
2023-01-11T17:08:49.463Z,8.03
2023-01-11T17:11:30.355Z,8.04
2023-01-11T17:14:53.609Z,8.01
2023-01-11T17:17:22.608Z,7.91
2023-01-11T17:19:54.308Z,7.99
2023-01-11T17:22:27.547Z,7.84
2023-01-11T17:24:59.474Z,7.87
2023-01-11T17:27:33.158Z,7.74
2023-01-11T17:30:03.681Z,7.84
2023-01-11T17:32:37.811Z,7.81
2023-01-11T17:35:16.941Z,7.90
2023-01-11T17:37:47.199Z,7.67
2023-01-11T17:40:26.402Z,7.67
2023-01-11T17:43:15.829Z,7.75
2023-01-11T17:45:46.763Z,7.79
2023-01-11T17:48:38.688Z,7.78
2023-01-11T17:51:15.001Z,7.80
2023-01-11T17:53:50.483Z,7.72
2023-01-11T17:56:39.241Z,7.75
2023-01-11T17:59:21.392Z,7.87
2023-01-11T18:01:52.541Z,7.82
2023-01-11T18:04:23.292Z,7.75
2023-01-11T18:06:55.743Z,7.81
2023-01-11T18:09:28.941Z,7.82
2023-01-11T18:12:08.723Z,7.89
2023-01-11T18:14:42.310Z,7.95
2023-01-11T18:17:31.773Z,7.89
2023-01-11T18:20:00.770Z,7.92
2023-01-11T18:22:35.105Z,7.98
2023-01-11T18:25:18.740Z,7.91
2023-01-11T18:27:47.639Z,7.86
2023-01-11T18:30:38.839Z,7.95
2023-01-11T18:33:15.763Z,7.88
2023-01-11T18:35:45.960Z,7.85
2023-01-11T18:38:17.873Z,7.87
2023-01-11T18:40:47.952Z,7.80
2023-01-11T18:43:18.632Z,7.84
2023-01-11T18:45:47.426Z,7.88
2023-01-11T18:48:16.989Z,7.89
2023-01-11T18:50:46.254Z,7.88
2023-01-11T18:53:17.318Z,7.88
2023-01-11T18:55:46.950Z,7.95
2023-01-11T18:58:15.211Z,7.97
2023-01-11T19:00:43.413Z,7.98
2023-01-11T19:05:41.758Z,7.95
2023-01-11T19:08:09.988Z,8.01
2023-01-11T19:10:42.338Z,8.01
2023-01-11T19:13:10.891Z,8.00
2023-01-11T19:15:39.089Z,7.89
2023-01-11T19:18:07.333Z,7.90
2023-01-11T19:20:35.558Z,7.94
2023-01-11T19:23:03.794Z,7.94
2023-01-11T19:25:32.510Z,8.00
2023-01-11T19:28:03.445Z,7.98
2023-01-11T19:30:31.660Z,7.98
2023-01-11T19:32:59.962Z,8.01
2023-01-11T19:35:28.233Z,7.98
2023-01-11T19:37:56.451Z,8.02
2023-01-11T19:40:24.666Z,8.00
2023-01-11T19:42:53.239Z,8.00
2023-01-11T19:45:22.742Z,8.02
2023-01-11T19:47:51.016Z,8.02
2023-01-11T19:50:19.502Z,8.13
2023-01-11T19:52:49.331Z,8.15
2023-01-11T19:55:17.898Z,8.09
2023-01-11T19:57:46.105Z,8.12
2023-01-11T20:00:15.372Z,8.03
2023-01-11T20:02:45.011Z,8.07
2023-01-11T20:05:13.599Z,8.06
2023-01-11T20:07:41.835Z,8.13
2023-01-11T20:10:11.660Z,8.20
2023-01-11T20:12:39.842Z,8.19
2023-01-11T20:15:09.507Z,8.16
2023-01-11T20:17:37.978Z,8.17
2023-01-11T20:20:09.468Z,8.22
2023-01-11T20:22:37.900Z,8.19
2023-01-11T20:25:07.642Z,8.26
2023-01-11T20:27:35.871Z,8.28
2023-01-11T20:30:04.340Z,8.26
2023-01-11T20:32:41.345Z,8.25
2023-01-11T20:35:12.881Z,8.22
2023-01-11T20:37:41.212Z,8.26
2023-01-11T20:40:14.141Z,8.30
2023-01-11T20:42:42.794Z,8.29
2023-01-11T20:45:15.195Z,8.37
2023-01-11T20:47:44.775Z,8.34
2023-01-11T20:50:14.574Z,8.40
2023-01-11T20:52:43.178Z,8.45
2023-01-11T20:55:11.535Z,8.39
2023-01-11T20:57:45.337Z,8.44
2023-01-11T21:00:14.612Z,8.46
2023-01-11T21:02:43.025Z,8.51
2023-01-11T21:05:11.748Z,8.53
2023-01-11T21:07:41.328Z,8.42
2023-01-11T21:10:11.444Z,8.42
2023-01-11T21:12:40.077Z,8.33
2023-01-11T21:15:10.693Z,8.32
2023-01-11T21:17:40.003Z,8.33
2023-01-11T21:20:10.041Z,8.31
2023-01-11T21:22:39.873Z,8.40
2023-01-11T21:25:10.064Z,8.43
2023-01-11T21:27:38.963Z,8.37
2023-01-11T21:30:09.195Z,8.33
2023-01-11T21:32:37.571Z,8.24
2023-01-11T21:35:06.958Z,8.11
2023-01-11T21:37:35.204Z,8.07
2023-01-11T21:40:06.421Z,8.00
2023-01-11T21:42:35.289Z,7.95
2023-01-11T21:45:05.479Z,8.05
2023-01-11T21:47:33.916Z,8.03
2023-01-11T21:50:02.671Z,7.99
2023-01-11T21:52:32.097Z,8.01
2023-01-11T21:55:01.746Z,7.94
2023-01-11T21:57:32.237Z,8.02
2023-01-11T22:00:01.319Z,7.98
2023-01-11T22:02:29.698Z,7.99
2023-01-11T22:04:59.581Z,8.04
2023-01-11T22:07:29.048Z,8.01
2023-01-11T22:10:04.651Z,7.94
2023-01-11T22:12:35.768Z,7.88
2023-01-11T22:15:04.629Z,7.98
2023-01-11T22:17:33.217Z,8.00
2023-01-11T22:20:02.101Z,7.99
2023-01-11T22:22:30.888Z,8.03
2023-01-11T22:24:59.675Z,7.98
2023-01-11T22:27:28.089Z,7.95
2023-01-11T22:29:57.913Z,7.99
2023-01-11T22:32:27.244Z,7.92
2023-01-11T22:34:56.418Z,8.01
2023-01-11T22:37:25.001Z,7.97
2023-01-11T22:39:53.361Z,7.98
2023-01-11T22:42:21.711Z,8.02
2023-01-11T22:44:49.975Z,8.01
2023-01-11T22:47:19.560Z,8.02
2023-01-11T22:49:53.927Z,8.01
2023-01-11T22:52:22.652Z,8.08
2023-01-11T22:54:50.993Z,8.08
2023-01-11T22:57:19.506Z,8.10
2023-01-11T22:59:48.370Z,8.07
2023-01-11T23:02:17.067Z,8.09
2023-01-11T23:04:47.119Z,8.09
2023-01-11T23:07:15.843Z,8.10
2023-01-11T23:09:44.030Z,8.14
2023-01-11T23:12:30.212Z,8.09
2023-01-11T23:14:58.925Z,8.00
2023-01-11T23:17:27.412Z,7.95
2023-01-11T23:19:57.220Z,7.97
2023-01-11T23:22:25.753Z,7.85
2023-01-11T23:24:54.171Z,7.86
2023-01-11T23:27:22.405Z,7.84
2023-01-11T23:29:50.678Z,7.84
2023-01-11T23:32:19.036Z,7.84
2023-01-11T23:34:47.360Z,7.89
2023-01-11T23:37:17.861Z,7.85
2023-01-11T23:39:46.079Z,7.81
2023-01-11T23:42:28.529Z,7.86
2023-01-11T23:44:57.550Z,7.85
2023-01-11T23:47:26.107Z,7.76
2023-01-11T23:49:57.086Z,7.80
2023-01-11T23:52:29.413Z,7.74
2023-01-11T23:54:58.130Z,7.72
2023-01-11T23:57:27.612Z,7.75
2023-01-11T23:59:56.457Z,7.67
